Time;durP1;ratioP1;P1;durP2;ratioP2;P2;SDS_P1;SDS_P2;PMS_P1;PMS_P2;Temp;Humidity;BMP_temperature;BMP_pressure;BME280_temperature;BME280_humidity;BME280_pressure;Samples;Min_cycle;Max_cycle;Signal;HPM_P1;HPM_P2
2024/04/22 00:00:40;;;;;;;;;;;;;;;20.40;47.08;101993.97;2234293;26;5909;-63
2024/04/22 00:01:42;;;;;;;;;;;;;;;20.40;46.92;101991.84;2235814;26;2369;-63
2024/04/22 00:02:43;;;;;;;;;;;;;;;20.41;46.99;101999.13;2237232;26;2176;-63
2024/04/22 00:03:45;;;;;;;;;;;;;;;20.41;46.75;101987.63;2234925;26;2262;-63
2024/04/22 00:04:47;;;;;;;;;;;;;;;20.41;46.71;101999.13;2234104;26;2258;-63
2024/04/22 00:05:52;;;;;;;;;;;;;;;20.42;46.58;101988.34;2235534;26;2312;-63
2024/04/22 00:06:54;;;;;;;;;;;;;;;20.42;47.02;101991.97;2240586;26;2227;-63
2024/04/22 00:07:55;;;;;;;;;;;;;;;20.42;46.45;101994.84;2234066;26;2261;-63
2024/04/22 00:08:57;;;;;;;;;;;;;;;20.43;46.63;101992.72;2236564;26;1986;-63
2024/04/22 00:09:58;;;;;;;;;;;;;;;20.43;46.74;101992.72;2235603;26;2215;-63
2024/04/22 00:11:01;;;;;;;;;;;;;;;20.43;46.51;102002.13;2235200;26;2287;-63
2024/04/22 00:12:06;;;;;;;;;;;;;;;20.44;46.79;101992.13;2236361;26;2606;-63
2024/04/22 00:13:07;;;;;;;;;;;;;;;20.43;46.39;101995.59;2229503;26;2183;-63
2024/04/22 00:14:11;;;;;;;;;;;;;;;20.44;46.89;101986.34;2236867;26;2287;-63
2024/04/22 00:15:13;;;;;;;;;;;;;;;20.45;46.43;101989.97;2233737;26;2440;-63
2024/04/22 00:16:14;;;;;;;;;;;;;;;20.45;46.50;101993.59;2235454;26;2390;-63
2024/04/22 00:17:16;;;;;;;;;;;;;;;20.45;46.21;101992.84;2233280;26;2128;-63
2024/04/22 00:18:17;;;;;;;;;;;;;;;20.45;46.93;101993.59;2234861;26;2208;-63
2024/04/22 00:19:19;;;;;;;;;;;;;;;20.45;46.93;101987.84;2231950;26;2235;-63
2024/04/22 00:20:20;;;;;;;;;;;;;;;20.44;47.11;101989.22;2236489;26;2152;-63
2024/04/22 00:21:22;;;;;;;;;;;;;;;20.45;46.80;101984.97;2237008;26;2100;-63
2024/04/22 00:22:23;;;;;;;;;;;;;;;20.46;46.83;101994.38;2236062;26;2315;-63
2024/04/22 00:23:25;;;;;;;;;;;;;;;20.45;46.60;101987.84;2235571;26;2289;-63
2024/04/22 00:24:26;;;;;;;;;;;;;;;20.46;46.71;101989.38;2234265;26;2199;-63
2024/04/22 00:25:28;;;;;;;;;;;;;;;20.46;46.59;101988.63;2233369;26;2474;-63
2024/04/22 00:26:29;;;;;;;;;;;;;;;20.45;46.51;101981.34;2234784;26;2141;-63
2024/04/22 00:27:31;;;;;;;;;;;;;;;20.45;46.66;101976.34;2232206;26;2287;-63
2024/04/22 00:28:32;;;;;;;;;;;;;;;20.45;47.14;101987.09;2234041;26;2738;-63
2024/04/22 00:29:34;;;;;;;;;;;;;;;20.45;46.85;101987.09;2234210;26;2185;-64
2024/04/22 00:30:35;;;;;;;;;;;;;;;20.45;46.86;101970.59;2234950;26;5841;-63
2024/04/22 00:31:37;;;;;;;;;;;;;;;20.44;46.72;101983.47;2237638;26;2143;-63
2024/04/22 00:32:39;;;;;;;;;;;;;;;20.43;47.10;101984.88;2236279;26;2275;-63
2024/04/22 00:33:40;;;;;;;;;;;;;;;20.44;46.62;101980.59;2225856;26;2163;-62
2024/04/22 00:34:45;;;;;;;;;;;;;;;20.44;46.65;101974.09;2230528;26;2297;-63
2024/04/22 00:35:56;;;;;;;;;;;;;;;20.43;46.54;101984.88;2234450;26;2309;-63
2024/04/22 00:36:57;;;;;;;;;;;;;;;20.43;46.76;101979.13;2236778;26;2427;-63
2024/04/22 00:37:59;;;;;;;;;;;;;;;20.43;46.71;101981.22;2237538;26;2246;-63
2024/04/22 00:39:00;;;;;;;;;;;;;;;20.42;46.67;101983.34;2234928;26;2105;-63
2024/04/22 00:40:02;;;;;;;;;;;;;;;20.42;46.27;101983.34;2237558;26;2156;-63
2024/04/22 00:41:03;;;;;;;;;;;;;;;20.43;46.67;101978.34;2232209;26;2057;-63
2024/04/22 00:42:05;;;;;;;;;;;;;;;20.42;47.04;101977.59;2245849;26;2289;-63
2024/04/22 00:43:06;;;;;;;;;;;;;;;20.42;46.32;101989.09;2232875;26;2270;-63
2024/04/22 00:44:08;;;;;;;;;;;;;;;20.42;46.46;101980.47;2230352;26;2142;-63
2024/04/22 00:45:10;;;;;;;;;;;;;;;20.42;46.65;101988.34;2233358;26;2214;-63
2024/04/22 00:46:11;;;;;;;;;;;;;;;20.42;46.75;101983.34;2237313;26;2081;-63
2024/04/22 00:47:12;;;;;;;;;;;;;;;20.41;46.58;101981.84;2237157;26;2109;-63
2024/04/22 00:48:15;;;;;;;;;;;;;;;20.41;47.00;101981.09;2237879;26;2218;-63
2024/04/22 00:49:17;;;;;;;;;;;;;;;20.41;46.68;101987.63;2238109;26;2113;-63
2024/04/22 00:50:18;;;;;;;;;;;;;;;20.40;46.31;101985.34;2231403;26;2146;-63
2024/04/22 00:51:20;;;;;;;;;;;;;;;20.40;46.81;101986.09;2238422;26;2121;-63
2024/04/22 00:52:22;;;;;;;;;;;;;;;20.38;46.67;101974.44;2237186;26;2146;-63
2024/04/22 00:53:24;;;;;;;;;;;;;;;20.39;46.79;101984.59;2238392;26;2120;-63
2024/04/22 00:54:26;;;;;;;;;;;;;;;20.39;46.68;101984.59;2236646;26;2358;-63
2024/04/22 00:55:28;;;;;;;;;;;;;;;20.38;46.85;101988.84;2235443;26;2424;-63
2024/04/22 00:56:30;;;;;;;;;;;;;;;20.39;46.67;101984.59;2236666;26;2181;-63
2024/04/22 00:57:32;;;;;;;;;;;;;;;20.38;46.28;101977.34;2237369;26;2493;-63
2024/04/22 00:58:33;;;;;;;;;;;;;;;20.36;46.25;101982.94;2239522;26;2189;-63
2024/04/22 00:59:35;;;;;;;;;;;;;;;20.38;46.43;101985.97;2236971;26;2014;-63
2024/04/22 01:00:37;;;;;;;;;;;;;;;20.36;46.79;101980.06;2234794;26;6047;-63
2024/04/22 01:01:38;;;;;;;;;;;;;;;20.36;47.11;101991.59;2238816;26;2120;-63
2024/04/22 01:02:40;;;;;;;;;;;;;;;20.35;46.93;101978.59;2240335;26;2283;-62
2024/04/22 01:03:42;;;;;;;;;;;;;;;20.35;46.74;101975.72;2237735;26;2162;-63
2024/04/22 01:04:45;;;;;;;;;;;;;;;20.35;46.56;101995.09;2235237;26;2303;-63
2024/04/22 01:05:47;;;;;;;;;;;;;;;20.34;46.37;101988.59;2236055;26;2230;-63
2024/04/22 01:06:48;;;;;;;;;;;;;;;20.35;46.55;101978.59;2237348;26;2182;-63
2024/04/22 01:07:49;;;;;;;;;;;;;;;20.33;46.97;101981.31;2234623;26;2300;-63
2024/04/22 01:08:51;;;;;;;;;;;;;;;20.34;46.69;101979.97;2232284;26;2291;-63
2024/04/22 01:09:52;;;;;;;;;;;;;;;20.34;46.80;101990.69;2235481;26;2557;-63
2024/04/22 01:10:54;;;;;;;;;;;;;;;20.33;46.51;101974.81;2227194;26;2299;-63
2024/04/22 01:11:55;;;;;;;;;;;;;;;20.34;46.95;101984.94;2232423;26;2312;-63
2024/04/22 01:12:57;;;;;;;;;;;;;;;20.33;46.99;101981.31;2237292;26;2117;-63
2024/04/22 01:13:58;;;;;;;;;;;;;;;20.33;46.70;101981.31;2236467;26;2212;-63
2024/04/22 01:15:00;;;;;;;;;;;;;;;20.34;46.76;101984.94;2235612;26;2227;-63
2024/04/22 01:16:02;;;;;;;;;;;;;;;20.34;46.48;101977.09;2235059;26;2406;-63
2024/04/22 01:17:03;;;;;;;;;;;;;;;20.34;46.90;101982.84;2238127;26;2081;-63
2024/04/22 01:18:05;;;;;;;;;;;;;;;20.34;46.75;101977.09;2237600;26;2091;-63
2024/04/22 01:19:06;;;;;;;;;;;;;;;20.35;46.25;101980.72;2238308;26;2017;-63
2024/04/22 01:20:08;;;;;;;;;;;;;;;20.35;46.94;101984.34;2240243;26;2446;-63
2024/04/22 01:21:10;;;;;;;;;;;;;;;20.35;46.56;101990.09;2235772;26;2407;-63
2024/04/22 01:22:12;;;;;;;;;;;;;;;20.35;46.50;101972.81;2237159;26;2152;-63
2024/04/22 01:23:13;;;;;;;;;;;;;;;20.37;46.50;101978.72;2237596;26;2084;-63
2024/04/22 01:24:15;;;;;;;;;;;;;;;20.37;46.43;101978.72;2234230;26;2334;-63
2024/04/22 01:25:17;;;;;;;;;;;;;;;20.37;46.74;101978.72;2237658;26;2301;-63
2024/04/22 01:26:18;;;;;;;;;;;;;;;20.38;46.41;101976.59;2236723;26;2072;-63
2024/04/22 01:27:20;;;;;;;;;;;;;;;20.38;46.64;101976.59;2231433;26;2244;-63
2024/04/22 01:28:22;;;;;;;;;;;;;;;20.38;46.52;101974.44;2232069;26;2322;-63
2024/04/22 01:29:23;;;;;;;;;;;;;;;20.38;46.46;101988.84;2233654;26;2254;-63
2024/04/22 01:30:25;;;;;;;;;;;;;;;20.39;46.49;101972.34;2233185;26;6094;-63
2024/04/22 01:31:27;;;;;;;;;;;;;;;20.38;46.55;101971.56;2233295;26;2343;-63
2024/04/22 01:32:28;;;;;;;;;;;;;;;20.39;46.59;101972.34;2236863;26;2245;-63
2024/04/22 01:33:30;;;;;;;;;;;;;;;20.39;46.35;101975.22;2238576;26;2333;-63
2024/04/22 01:34:32;;;;;;;;;;;;;;;20.40;46.46;101980.34;2231726;26;2209;-63
2024/04/22 01:35:33;;;;;;;;;;;;;;;20.38;46.47;101968.69;2234650;26;2222;-63
2024/04/22 01:36:40;;;;;;;;;;;;;;;20.39;46.55;101975.22;2237639;26;2104;-63
2024/04/22 01:37:42;;;;;;;;;;;;;;;20.40;46.85;101985.34;2236656;26;2297;-63
2024/04/22 01:38:44;;;;;;;;;;;;;;;20.39;46.19;101973.09;2237819;26;2221;-63
2024/04/22 01:39:46;;;;;;;;;;;;;;;20.38;46.81;101974.44;2236210;26;2334;-63
2024/04/22 01:40:47;;;;;;;;;;;;;;;20.38;46.72;101971.56;2242125;26;2193;-63
2024/04/22 01:41:50;;;;;;;;;;;;;;;20.37;46.44;101975.84;2238606;26;2218;-63
2024/04/22 01:42:52;;;;;;;;;;;;;;;20.36;46.79;101971.44;2237213;26;2192;-63
2024/04/22 01:43:53;;;;;;;;;;;;;;;20.37;46.53;101981.59;2227562;26;2168;-63
2024/04/22 01:44:55;;;;;;;;;;;;;;;20.36;46.36;101977.19;2236487;26;2347;-63
2024/04/22 01:45:56;;;;;;;;;;;;;;;20.36;46.84;101974.31;2238708;26;2213;-64
2024/04/22 01:46:59;;;;;;;;;;;;;;;20.35;46.42;101972.81;2233886;26;2271;-63
2024/04/22 01:48:00;;;;;;;;;;;;;;;20.36;46.63;101971.44;2235070;26;2135;-63
2024/04/22 01:49:02;;;;;;;;;;;;;;;20.36;46.39;101974.31;2231877;26;2299;-63
2024/04/22 01:50:04;;;;;;;;;;;;;;;20.36;46.49;101980.06;2233278;26;2515;-63
2024/04/22 01:51:05;;;;;;;;;;;;;;;20.35;46.55;101972.81;2232998;26;2385;-63
2024/04/22 01:52:07;;;;;;;;;;;;;;;20.36;47.00;101977.19;2238987;26;2249;-63
2024/04/22 01:53:08;;;;;;;;;;;;;;;20.35;46.41;101975.72;2236761;26;2317;-63
2024/04/22 01:54:10;;;;;;;;;;;;;;;20.35;46.61;101972.09;2236393;26;2052;-63
2024/04/22 01:55:11;;;;;;;;;;;;;;;20.34;46.47;101970.56;2233379;26;2253;-63
2024/04/22 01:56:13;;;;;;;;;;;;;;;20.34;46.65;101968.47;2244443;26;2171;-63
2024/04/22 01:57:14;;;;;;;;;;;;;;;20.34;46.36;101977.09;2233871;26;2299;-63
2024/04/22 01:58:16;;;;;;;;;;;;;;;20.34;46.29;101968.47;2237906;26;2291;-63
2024/04/22 01:59:17;;;;;;;;;;;;;;;20.35;46.54;101978.59;2231226;26;2136;-63
2024/04/22 02:00:19;;;;;;;;;;;;;;;20.33;47.04;101969.81;2234762;26;5924;-63
2024/04/22 02:01:20;;;;;;;;;;;;;;;20.34;46.60;101971.34;2231927;26;2331;-63
2024/04/22 02:02:21;;;;;;;;;;;;;;;20.34;46.50;101971.34;2237425;26;2117;-63
2024/04/22 02:03:23;;;;;;;;;;;;;;;20.35;46.54;101972.09;2235053;26;2231;-63
2024/04/22 02:04:24;;;;;;;;;;;;;;;20.34;46.72;101979.97;2238222;26;2181;-63
2024/04/22 02:05:26;;;;;;;;;;;;;;;20.35;46.56;101972.81;2235828;26;2121;-63
2024/04/22 02:06:27;;;;;;;;;;;;;;;20.36;46.65;101973.56;2235554;26;2252;-63
2024/04/22 02:07:29;;;;;;;;;;;;;;;20.34;46.26;101971.34;2235465;26;2152;-63
2024/04/22 02:08:30;;;;;;;;;;;;;;;20.35;46.43;101975.72;2235740;26;2396;-63
2024/04/22 02:09:32;;;;;;;;;;;;;;;20.35;46.62;101972.81;2231140;26;2169;-63
2024/04/22 02:10:33;;;;;;;;;;;;;;;20.36;46.75;101980.06;2234944;26;2094;-64
2024/04/22 02:11:35;;;;;;;;;;;;;;;20.35;46.06;101978.59;2236541;26;2318;-63
2024/04/22 02:12:36;;;;;;;;;;;;;;;20.36;46.59;101980.06;2237014;26;2179;-63
2024/04/22 02:13:38;;;;;;;;;;;;;;;20.37;46.04;101975.84;2233876;26;2214;-63
2024/04/22 02:14:39;;;;;;;;;;;;;;;20.36;46.84;101974.31;2236310;26;2151;-63
2024/04/22 02:15:41;;;;;;;;;;;;;;;20.37;46.37;101978.72;2230374;26;2346;-63
2024/04/22 02:16:45;;;;;;;;;;;;;;;20.38;46.09;101977.34;2237414;26;2100;-63
2024/04/22 02:17:46;;;;;;;;;;;;;;;20.38;46.62;101976.59;2239501;26;2089;-63
2024/04/22 02:18:51;;;;;;;;;;;;;;;20.36;46.44;101971.44;2237082;26;2461;-63
2024/04/22 02:19:53;;;;;;;;;;;;;;;20.37;46.84;101970.09;2232613;26;2303;-64
2024/04/22 02:20:54;;;;;;;;;;;;;;;20.39;46.29;101966.59;2236429;26;1986;-63
2024/04/22 02:21:56;;;;;;;;;;;;;;;20.39;46.41;101980.97;2238129;26;2297;-62
2024/04/22 02:22:57;;;;;;;;;;;;;;;20.38;46.22;101973.72;2241464;26;2195;-63
2024/04/22 02:23:58;;;;;;;;;;;;;;;20.38;46.14;101965.81;2235382;26;2194;-63
2024/04/22 02:25:00;;;;;;;;;;;;;;;20.37;46.78;101972.97;2236753;26;2288;-63
2024/04/22 02:26:02;;;;;;;;;;;;;;;20.38;46.37;101965.06;2235474;26;2212;-63
2024/04/22 02:27:04;;;;;;;;;;;;;;;20.38;46.35;101977.34;2239494;26;2162;-63
2024/04/22 02:28:05;;;;;;;;;;;;;;;20.37;46.60;101975.84;2236235;26;2245;-63
2024/04/22 02:29:07;;;;;;;;;;;;;;;20.37;46.74;101975.84;2232463;26;2167;-63
2024/04/22 02:30:09;;;;;;;;;;;;;;;20.36;46.70;101971.44;2233134;26;6398;-63
2024/04/22 02:31:10;;;;;;;;;;;;;;;20.36;46.17;101971.44;2236060;26;2314;-63
2024/04/22 02:32:11;;;;;;;;;;;;;;;20.37;46.31;101970.09;2240342;26;2091;-63
2024/04/22 02:33:13;;;;;;;;;;;;;;;20.35;46.16;101969.94;2236373;26;2117;-63
2024/04/22 02:34:15;;;;;;;;;;;;;;;20.35;46.15;101972.09;2233992;26;2303;-63
2024/04/22 02:35:16;;;;;;;;;;;;;;;20.35;46.06;101966.31;2231526;26;2273;-63
2024/04/22 02:36:18;;;;;;;;;;;;;;;20.34;46.61;101967.69;2236006;26;2375;-63
2024/04/22 02:37:20;;;;;;;;;;;;;;;20.34;46.20;101968.47;2235972;26;2117;-63
2024/04/22 02:38:21;;;;;;;;;;;;;;;20.34;46.56;101971.34;2235154;26;2258;-63
2024/04/22 02:39:23;;;;;;;;;;;;;;;20.33;46.57;101969.81;2235294;26;2216;-63
2024/04/22 02:40:25;;;;;;;;;;;;;;;20.33;46.27;101966.94;2235129;26;2291;-63
2024/04/22 02:41:26;;;;;;;;;;;;;;;20.33;46.40;101964.06;2235244;26;2243;-63
2024/04/22 02:42:28;;;;;;;;;;;;;;;20.33;46.25;101972.69;2235027;26;2085;-63
2024/04/22 02:43:29;;;;;;;;;;;;;;;20.33;46.39;101963.31;2234325;26;2205;-63
2024/04/22 02:44:31;;;;;;;;;;;;;;;20.32;46.57;101962.56;2232005;26;2123;-63
2024/04/22 02:45:32;;;;;;;;;;;;;;;20.32;46.31;101953.94;2235086;26;2166;-63
2024/04/22 02:46:35;;;;;;;;;;;;;;;20.32;45.99;101962.56;2233671;26;2252;-63
2024/04/22 02:47:36;;;;;;;;;;;;;;;20.32;46.58;101951.06;2235747;26;2270;-63
2024/04/22 02:48:38;;;;;;;;;;;;;;;20.32;46.62;101948.19;2229838;26;2139;-63
2024/04/22 02:49:39;;;;;;;;;;;;;;;20.32;46.68;101951.06;2235846;26;2290;-63
2024/04/22 02:50:41;;;;;;;;;;;;;;;20.32;46.72;101953.16;2236186;26;2368;-63
2024/04/22 02:51:42;;;;;;;;;;;;;;;20.32;46.66;101951.06;2236538;26;2199;-63
2024/04/22 02:52:44;;;;;;;;;;;;;;;20.32;46.46;101951.06;2232230;26;2207;-63
2024/04/22 02:53:45;;;;;;;;;;;;;;;20.33;46.62;101954.69;2233954;26;2233;-63
2024/04/22 02:54:47;;;;;;;;;;;;;;;20.33;46.02;101946.81;2235097;26;2248;-63
2024/04/22 02:55:48;;;;;;;;;;;;;;;20.34;45.79;101947.56;2237271;26;2229;-63
2024/04/22 02:56:50;;;;;;;;;;;;;;;20.33;46.53;101941.06;2236583;26;2065;-63
2024/04/22 02:57:51;;;;;;;;;;;;;;;20.33;46.04;101940.31;2236774;26;2311;-63
2024/04/22 02:58:53;;;;;;;;;;;;;;;20.34;46.15;101945.44;2235342;26;2266;-63
2024/04/22 02:59:54;;;;;;;;;;;;;;;20.34;46.23;101936.81;2236160;26;2370;-63
2024/04/22 03:00:56;;;;;;;;;;;;;;;20.35;46.63;101941.19;2232057;26;5917;-63
2024/04/22 03:01:57;;;;;;;;;;;;;;;20.35;46.19;101952.69;2237352;26;2084;-63
2024/04/22 03:02:59;;;;;;;;;;;;;;;20.35;46.10;101949.81;2236840;26;2077;-64
2024/04/22 03:04:01;;;;;;;;;;;;;;;20.36;46.22;101951.31;2234473;26;2228;-63
2024/04/22 03:05:03;;;;;;;;;;;;;;;20.35;46.41;101944.06;2235555;26;2293;-63
2024/04/22 03:06:05;;;;;;;;;;;;;;;20.36;46.25;101948.44;2236374;26;2205;-63
2024/04/22 03:07:07;;;;;;;;;;;;;;;20.37;45.98;101947.06;2233550;26;2204;-63
2024/04/22 03:08:08;;;;;;;;;;;;;;;20.38;46.39;101948.56;2231162;26;2408;-63
2024/04/22 03:09:10;;;;;;;;;;;;;;;20.38;46.61;101948.56;2236557;26;2226;-63
2024/04/22 03:10:11;;;;;;;;;;;;;;;20.38;46.20;101942.06;2235749;26;2077;-63
2024/04/22 03:11:13;;;;;;;;;;;;;;;20.39;46.03;101944.31;2233195;26;2132;-63
2024/04/22 03:12:14;;;;;;;;;;;;;;;20.40;45.66;101945.81;2232057;26;2230;-63
2024/04/22 03:13:16;;;;;;;;;;;;;;;20.40;46.04;101948.69;2234793;26;2235;-63
2024/04/22 03:14:17;;;;;;;;;;;;;;;20.40;46.15;101945.81;2229725;26;2595;-63
2024/04/22 03:15:19;;;;;;;;;;;;;;;20.41;46.00;101947.34;2233422;26;2258;-63
2024/04/22 03:16:20;;;;;;;;;;;;;;;20.41;46.53;101950.22;2234657;26;2113;-63
2024/04/22 03:17:22;;;;;;;;;;;;;;;20.42;46.09;101943.06;2236386;26;2061;-63
2024/04/22 03:18:23;;;;;;;;;;;;;;;20.41;46.11;101953.09;2234958;26;2254;-63
2024/04/22 03:19:25;;;;;;;;;;;;;;;20.42;46.42;101942.31;2235726;26;2254;-63
2024/04/22 03:20:26;;;;;;;;;;;;;;;20.42;46.17;101943.06;2245285;26;2255;-63
2024/04/22 03:21:28;;;;;;;;;;;;;;;20.43;45.75;101938.84;2236920;26;2269;-63
2024/04/22 03:22:29;;;;;;;;;;;;;;;20.44;46.17;101940.31;2236954;26;2618;-63
2024/04/22 03:23:31;;;;;;;;;;;;;;;20.43;46.27;101938.84;2236337;26;2209;-63
2024/04/22 03:24:32;;;;;;;;;;;;;;;20.44;46.40;101940.31;2235690;26;2391;-63
2024/04/22 03:25:34;;;;;;;;;;;;;;;20.44;46.32;101940.31;2234301;26;2096;-63
2024/04/22 03:26:35;;;;;;;;;;;;;;;20.44;45.95;101934.56;2237186;26;2118;-63
2024/04/22 03:27:37;;;;;;;;;;;;;;;20.44;45.71;101928.81;2234982;26;2175;-63
2024/04/22 03:28:38;;;;;;;;;;;;;;;20.44;45.96;101934.56;2241336;26;2201;-63
2024/04/22 03:29:40;;;;;;;;;;;;;;;20.44;46.59;101928.81;2241380;26;2291;-63
2024/04/22 03:30:41;;;;;;;;;;;;;;;20.43;46.43;101941.72;2234130;26;6053;-63
2024/04/22 03:31:43;;;;;;;;;;;;;;;20.44;46.52;101933.81;2236711;26;2046;-63
2024/04/22 03:32:44;;;;;;;;;;;;;;;20.44;46.36;101934.56;2231413;26;2267;-63
2024/04/22 03:33:46;;;;;;;;;;;;;;;20.43;46.12;101933.09;2236977;26;2211;-63
2024/04/22 03:34:47;;;;;;;;;;;;;;;20.43;45.78;101933.09;2232448;26;2214;-63
2024/04/22 03:35:49;;;;;;;;;;;;;;;20.43;46.05;101935.97;2237160;26;2326;-62
2024/04/22 03:36:50;;;;;;;;;;;;;;;20.44;46.06;101931.69;2234890;26;2189;-63
2024/04/22 03:37:53;;;;;;;;;;;;;;;20.43;46.07;101933.09;2235321;26;2053;-63
2024/04/22 03:38:54;;;;;;;;;;;;;;;20.44;46.08;101928.06;2234513;26;2157;-63
2024/04/22 03:39:56;;;;;;;;;;;;;;;20.43;45.94;101933.09;2236779;26;2203;-63
2024/04/22 03:40:58;;;;;;;;;;;;;;;20.43;46.12;101938.06;2233870;26;2291;-63
2024/04/22 03:41:59;;;;;;;;;;;;;;;20.43;45.88;101935.97;2236310;26;1934;-63
2024/04/22 03:43:01;;;;;;;;;;;;;;;20.43;46.15;101935.19;2235885;26;2253;-63
2024/04/22 03:44:02;;;;;;;;;;;;;;;20.43;46.11;101932.31;2233436;26;2490;-63
2024/04/22 03:45:04;;;;;;;;;;;;;;;20.43;46.04;101943.81;2236233;26;2311;-63
2024/04/22 03:50:07;;;;;;;;;;;;;;;20.44;46.11;101940.31;2235813;26;2175;-63
2024/04/22 03:51:08;;;;;;;;;;;;;;;20.43;46.34;101933.09;2235670;26;2420;-63
2024/04/22 03:52:10;;;;;;;;;;;;;;;20.44;46.09;101939.59;2239999;26;2177;-63
2024/04/22 03:53:11;;;;;;;;;;;;;;;20.43;46.12;101938.84;2235299;26;2215;-63
2024/04/22 03:54:13;;;;;;;;;;;;;;;20.44;45.91;101931.69;2235794;26;2175;-63
2024/04/22 03:55:14;;;;;;;;;;;;;;;20.43;46.46;101930.19;2230164;26;2092;-63
2024/04/22 03:56:16;;;;;;;;;;;;;;;20.45;46.10;101930.31;2236004;26;2053;-63
2024/04/22 03:57:17;;;;;;;;;;;;;;;20.45;46.37;101930.31;2235163;26;2289;-63
2024/04/22 03:58:19;;;;;;;;;;;;;;;20.45;46.33;101938.94;2234051;26;2294;-63
2024/04/22 03:59:20;;;;;;;;;;;;;;;20.46;46.49;101936.84;2230891;26;2297;-63
2024/04/22 04:00:22;;;;;;;;;;;;;;;20.45;46.04;101941.81;2234034;26;5921;-63
2024/04/22 04:01:23;;;;;;;;;;;;;;;20.46;46.23;101931.06;2233340;26;2230;-63
2024/04/22 04:02:25;;;;;;;;;;;;;;;20.47;46.33;101938.31;2236303;26;2231;-63
2024/04/22 04:03:26;;;;;;;;;;;;;;;20.47;45.98;101941.94;2234922;26;2276;-63
2024/04/22 04:04:28;;;;;;;;;;;;;;;20.46;46.24;101934.69;2237075;26;1991;-63
2024/04/22 04:05:29;;;;;;;;;;;;;;;20.47;45.84;101944.81;2234232;26;2294;-63
2024/04/22 04:06:31;;;;;;;;;;;;;;;20.47;45.93;101939.06;2233495;26;2274;-63
2024/04/22 04:07:32;;;;;;;;;;;;;;;20.48;45.55;101946.34;2235686;26;2253;-63
2024/04/22 04:08:34;;;;;;;;;;;;;;;20.48;46.04;101942.72;2236317;26;2219;-63
2024/04/22 04:09:36;;;;;;;;;;;;;;;20.47;46.06;101944.06;2232253;26;2294;-63
2024/04/22 04:10:37;;;;;;;;;;;;;;;20.47;46.16;101950.56;2237049;26;2089;-63
2024/04/22 04:11:39;;;;;;;;;;;;;;;20.47;46.06;101949.84;2233202;26;2180;-63
2024/04/22 04:12:41;;;;;;;;;;;;;;;20.47;45.76;101952.72;2233523;26;2372;-63
2024/04/22 04:13:46;;;;;;;;;;;;;;;20.47;46.03;101944.06;2237455;26;2246;-63
2024/04/22 04:14:47;;;;;;;;;;;;;;;20.46;46.46;101951.97;2237843;26;2108;-63
2024/04/22 04:15:49;;;;;;;;;;;;;;;20.46;46.06;101949.09;2236302;26;2202;-63
2024/04/22 04:16:50;;;;;;;;;;;;;;;20.45;45.82;101947.56;2244650;26;2018;-63
2024/04/22 04:17:52;;;;;;;;;;;;;;;20.45;45.90;101952.56;2242442;26;2105;-63
2024/04/22 04:18:56;;;;;;;;;;;;;;;20.45;46.25;101953.31;2234809;26;2321;-63
2024/04/22 04:19:57;;;;;;;;;;;;;;;20.44;46.33;101951.84;2233042;26;2301;-63
2024/04/22 04:20:59;;;;;;;;;;;;;;;20.46;46.42;101959.84;2235695;26;2293;-63
2024/04/22 04:22:00;;;;;;;;;;;;;;;20.46;46.14;101957.72;2231721;26;2282;-63
2024/04/22 04:23:02;;;;;;;;;;;;;;;20.45;46.11;101959.06;2237492;26;2206;-63
2024/04/22 04:24:07;;;;;;;;;;;;;;;20.45;46.13;101959.06;2226825;26;2561;-63
2024/04/22 04:25:08;;;;;;;;;;;;;;;20.45;45.77;101967.72;2236974;26;2030;-63
2024/04/22 04:26:10;;;;;;;;;;;;;;;20.45;46.19;101953.31;2232202;26;2132;-63
2024/04/22 04:27:11;;;;;;;;;;;;;;;20.46;46.01;101960.59;2230935;26;2296;-63
2024/04/22 04:28:13;;;;;;;;;;;;;;;20.47;46.12;101962.09;2236919;26;2305;-62
2024/04/22 04:29:14;;;;;;;;;;;;;;;20.46;46.35;101954.84;2236588;26;2176;-71
2024/04/22 04:30:16;;;;;;;;;;;;;;;20.47;46.30;101958.47;2237113;26;5917;-70
2024/04/22 04:31:18;;;;;;;;;;;;;;;20.46;46.19;101954.84;2235658;26;2103;-70
2024/04/22 04:32:19;;;;;;;;;;;;;;;20.46;45.63;101957.72;2238715;26;2213;-65
2024/04/22 04:33:21;;;;;;;;;;;;;;;20.47;46.00;101949.84;2235026;26;2208;-62
2024/04/22 04:34:22;;;;;;;;;;;;;;;20.47;46.09;101956.34;2238034;26;2329;-62
2024/04/22 04:35:24;;;;;;;;;;;;;;;20.48;46.37;101946.34;2235308;26;2322;-63
2024/04/22 04:36:25;;;;;;;;;;;;;;;20.47;45.88;101950.56;2241199;26;2468;-63
2024/04/22 04:37:27;;;;;;;;;;;;;;;20.47;46.22;101944.81;2234385;26;2466;-63
2024/04/22 04:38:29;;;;;;;;;;;;;;;20.49;45.65;101953.59;2236229;26;2283;-63
2024/04/22 04:39:31;;;;;;;;;;;;;;;20.49;45.69;101953.59;2232615;26;2232;-63
2024/04/22 04:40:32;;;;;;;;;;;;;;;20.48;45.93;101949.22;2235248;26;2456;-63
2024/04/22 04:41:34;;;;;;;;;;;;;;;20.49;45.82;101953.59;2228554;26;2220;-63
2024/04/22 04:42:35;;;;;;;;;;;;;;;20.49;46.03;101947.84;2235816;26;2477;-63
2024/04/22 04:43:37;;;;;;;;;;;;;;;20.50;46.12;101965.84;2236181;26;2158;-63
2024/04/22 04:44:38;;;;;;;;;;;;;;;20.26;42.93;101965.06;2236245;26;2241;-65
2024/04/22 04:45:40;;;;;;;;;;;;;;;19.25;40.84;101955.53;2236354;26;2224;-63
2024/04/22 04:46:41;;;;;;;;;;;;;;;19.42;42.53;101959.53;2239570;26;2006;-65
2024/04/22 04:47:43;;;;;;;;;;;;;;;19.63;42.39;101959.53;2236525;26;2307;-62
2024/04/22 04:48:44;;;;;;;;;;;;;;;19.86;44.19;101946.69;2234767;26;2271;-63
2024/04/22 04:49:46;;;;;;;;;;;;;;;20.08;44.80;101961.75;2235934;26;2177;-63
2024/04/22 04:50:48;;;;;;;;;;;;;;;20.16;43.72;101961.50;2235265;26;2054;-64
2024/04/22 04:51:50;;;;;;;;;;;;;;;20.23;44.37;101954.81;2234739;26;2464;-65
2024/04/22 04:52:51;;;;;;;;;;;;;;;20.33;44.31;101951.81;2238037;26;2285;-64
2024/04/22 04:53:53;;;;;;;;;;;;;;;20.33;43.68;101946.81;2238001;26;2248;-64
2024/04/22 04:54:54;;;;;;;;;;;;;;;20.30;44.25;101948.81;2236749;26;2394;-64
2024/04/22 04:55:56;;;;;;;;;;;;;;;20.34;43.69;101942.56;2237454;26;2133;-64
2024/04/22 04:56:57;;;;;;;;;;;;;;;20.35;44.29;101949.81;2231985;26;2106;-64
2024/04/22 04:57:59;;;;;;;;;;;;;;;20.35;43.97;101946.94;2235129;26;2070;-64
2024/04/22 04:59:00;;;;;;;;;;;;;;;20.35;43.99;101949.06;2235153;26;2229;-64
2024/04/22 05:00:02;;;;;;;;;;;;;;;20.38;43.97;101951.44;2234781;26;2154;-64
2024/04/22 05:01:04;;;;;;;;;;;;;;;20.38;44.19;101945.69;2220524;26;7228;-64
2024/04/22 05:02:06;;;;;;;;;;;;;;;20.39;44.27;101949.34;2220553;26;2193;-64
2024/04/22 05:03:07;;;;;;;;;;;;;;;20.39;44.24;101949.34;2222451;26;2072;-64
2024/04/22 05:04:09;;;;;;;;;;;;;;;20.40;44.00;101948.69;2221207;26;2127;-64
2024/04/22 05:05:10;;;;;;;;;;;;;;;20.40;44.49;101942.94;2220319;26;2028;-64
2024/04/22 05:06:13;;;;;;;;;;;;;;;20.40;44.81;101951.56;2220949;26;2165;-64
2024/04/22 05:07:14;;;;;;;;;;;;;;;20.41;44.59;101944.47;2215800;26;2058;-64
2024/04/22 05:08:16;;;;;;;;;;;;;;;20.41;44.53;101940.81;2220885;26;2263;-63
2024/04/22 05:09:17;;;;;;;;;;;;;;;20.41;44.44;101944.47;2213871;26;2392;-63
2024/04/22 05:10:19;;;;;;;;;;;;;;;20.41;44.96;101947.34;2221395;26;2043;-64
2024/04/22 05:11:21;;;;;;;;;;;;;;;20.42;45.15;101948.81;2221410;26;2087;-64
2024/04/22 05:12:23;;;;;;;;;;;;;;;20.43;44.99;101950.34;2220886;26;2263;-64
2024/04/22 05:13:24;;;;;;;;;;;;;;;20.43;44.65;101953.22;2218032;26;2072;-64
2024/04/22 05:14:26;;;;;;;;;;;;;;;20.42;44.59;101951.69;2221231;26;2150;-64
2024/04/22 05:15:28;;;;;;;;;;;;;;;20.43;44.95;101949.56;2223468;26;2151;-64
2024/04/22 05:16:29;;;;;;;;;;;;;;;20.43;44.78;101947.47;2219788;26;2179;-64
2024/04/22 05:17:31;;;;;;;;;;;;;;;20.44;45.25;101946.06;2221138;26;2083;-64
2024/04/22 05:18:32;;;;;;;;;;;;;;;20.44;45.27;101957.59;2221250;26;1968;-64
2024/04/22 05:19:34;;;;;;;;;;;;;;;20.44;45.29;101957.59;2222088;26;1976;-64
2024/04/22 05:20:35;;;;;;;;;;;;;;;20.46;45.02;101962.72;2218264;26;1955;-64
2024/04/22 05:21:37;;;;;;;;;;;;;;;20.45;45.11;101953.31;2219883;26;2238;-64
2024/04/22 05:22:38;;;;;;;;;;;;;;;20.46;45.50;101956.97;2221453;26;2152;-64
2024/04/22 05:23:44;;;;;;;;;;;;;;;20.46;45.57;101960.59;2219877;26;2067;-64
2024/04/22 05:24:45;;;;;;;;;;;;;;;20.47;45.18;101959.22;2221334;26;2026;-64
2024/04/22 05:25:47;;;;;;;;;;;;;;;20.47;45.03;101956.34;2220752;26;2007;-64